Loughrea, Ireland
Current Conditions -  °F | °C
As of 1:30 PM on Saturday 25 Oct 2014 (Local Time) from EINN Reporting Station
Broken Clouds Broken Clouds  
Wind Chill: 13°   Ceiling: 3000
Heat Index: 13°   Visibility: 6mi
Dew Point:   Wind: 22mph
Humidity: 72%   Direction: 220°SW
Pressure: 29.91"   Gusts: NA
Location:  53.2°N, 8.57°W
Report Text: EINN 251330Z 22019KT 9999 FEW012 BKN030 13/08 Q1013 NOSIG
Loading
Personal Weather Stations






























Interactive Weather Map
Tropical Storm Tracking
New forecast layout! Learn more

10-Day Weather Forecast

Advertisements
Track Severe Weather on mobile